sensor_id;sensor_type;location;lat;lon;timestamp;temperature;humidity
37086;DHT22;23001;45.952;12.676;2023-04-04T00:01:09;9.00;75.30
37086;DHT22;23001;45.952;12.676;2023-04-04T00:03:48;8.90;76.60
37086;DHT22;23001;45.952;12.676;2023-04-04T00:06:28;8.80;74.40
37086;DHT22;23001;45.952;12.676;2023-04-04T00:09:18;9.00;72.60
37086;DHT22;23001;45.952;12.676;2023-04-04T00:12:09;9.00;73.00
37086;DHT22;23001;45.952;12.676;2023-04-04T00:14:57;8.80;72.60
37086;DHT22;23001;45.952;12.676;2023-04-04T00:17:44;8.90;73.90
37086;DHT22;23001;45.952;12.676;2023-04-04T00:23:51;8.70;75.00
37086;DHT22;23001;45.952;12.676;2023-04-04T00:26:48;8.60;73.70
37086;DHT22;23001;45.952;12.676;2023-04-04T00:29:24;8.90;73.80
37086;DHT22;23001;45.952;12.676;2023-04-04T00:32:03;8.70;74.80
37086;DHT22;23001;45.952;12.676;2023-04-04T00:34:52;8.60;74.20
37086;DHT22;23001;45.952;12.676;2023-04-04T00:37:32;8.60;74.00
37086;DHT22;23001;45.952;12.676;2023-04-04T00:40:26;8.60;73.70
37086;DHT22;23001;45.952;12.676;2023-04-04T00:43:23;8.50;73.50
37086;DHT22;23001;45.952;12.676;2023-04-04T00:49:28;8.60;73.20
37086;DHT22;23001;45.952;12.676;2023-04-04T00:52:13;8.50;72.40
37086;DHT22;23001;45.952;12.676;2023-04-04T00:54:53;8.30;73.90
37086;DHT22;23001;45.952;12.676;2023-04-04T00:57:52;8.20;73.20
37086;DHT22;23001;45.952;12.676;2023-04-04T01:03:41;8.30;72.70
37086;DHT22;23001;45.952;12.676;2023-04-04T01:06:53;8.20;72.80
37086;DHT22;23001;45.952;12.676;2023-04-04T01:09:45;8.10;73.60
37086;DHT22;23001;45.952;12.676;2023-04-04T01:15:59;8.00;72.70
37086;DHT22;23001;45.952;12.676;2023-04-04T01:19:01;8.10;72.40
37086;DHT22;23001;45.952;12.676;2023-04-04T01:21:37;8.00;72.90
37086;DHT22;23001;45.952;12.676;2023-04-04T01:24:33;8.00;72.00
37086;DHT22;23001;45.952;12.676;2023-04-04T01:27:27;7.90;72.10
37086;DHT22;23001;45.952;12.676;2023-04-04T01:30:04;8.00;72.10
37086;DHT22;23001;45.952;12.676;2023-04-04T01:33:19;8.00;72.20
37086;DHT22;23001;45.952;12.676;2023-04-04T01:42:10;7.70;72.70
37086;DHT22;23001;45.952;12.676;2023-04-04T01:44:47;7.70;73.10
37086;DHT22;23001;45.952;12.676;2023-04-04T01:47:56;7.60;74.30
37086;DHT22;23001;45.952;12.676;2023-04-04T01:50:38;7.50;74.60
37086;DHT22;23001;45.952;12.676;2023-04-04T01:53:32;7.50;74.50
37086;DHT22;23001;45.952;12.676;2023-04-04T01:56:14;7.30;74.60
37086;DHT22;23001;45.952;12.676;2023-04-04T01:59:06;7.30;75.20
37086;DHT22;23001;45.952;12.676;2023-04-04T02:04:45;7.30;74.30
37086;DHT22;23001;45.952;12.676;2023-04-04T02:07:30;7.30;76.20
37086;DHT22;23001;45.952;12.676;2023-04-04T02:10:08;7.30;76.20
37086;DHT22;23001;45.952;12.676;2023-04-04T02:12:59;7.40;76.60
37086;DHT22;23001;45.952;12.676;2023-04-04T02:15:46;7.30;75.10
37086;DHT22;23001;45.952;12.676;2023-04-04T02:18:38;7.20;77.20
37086;DHT22;23001;45.952;12.676;2023-04-04T02:21:18;7.30;77.10
37086;DHT22;23001;45.952;12.676;2023-04-04T02:23:57;7.20;77.00
37086;DHT22;23001;45.952;12.676;2023-04-04T02:29:38;7.00;76.00
37086;DHT22;23001;45.952;12.676;2023-04-04T02:32:30;7.10;77.10
37086;DHT22;23001;45.952;12.676;2023-04-04T02:35:12;7.10;78.20
37086;DHT22;23001;45.952;12.676;2023-04-04T02:37:55;7.00;77.90
37086;DHT22;23001;45.952;12.676;2023-04-04T02:40:32;6.90;78.20
37086;DHT22;23001;45.952;12.676;2023-04-04T02:43:26;6.80;78.30
37086;DHT22;23001;45.952;12.676;2023-04-04T02:46:13;6.60;78.30
37086;DHT22;23001;45.952;12.676;2023-04-04T02:49:07;6.70;77.70
37086;DHT22;23001;45.952;12.676;2023-04-04T02:51:57;6.70;78.00
37086;DHT22;23001;45.952;12.676;2023-04-04T02:54:37;6.60;78.30
37086;DHT22;23001;45.952;12.676;2023-04-04T02:57:23;6.70;77.80
37086;DHT22;23001;45.952;12.676;2023-04-04T03:00:02;6.80;77.50
37086;DHT22;23001;45.952;12.676;2023-04-04T03:02:59;6.90;78.80
37086;DHT22;23001;45.952;12.676;2023-04-04T03:05:33;6.70;79.80
37086;DHT22;23001;45.952;12.676;2023-04-04T03:08:13;6.70;80.70
37086;DHT22;23001;45.952;12.676;2023-04-04T03:11:08;6.60;78.10
37086;DHT22;23001;45.952;12.676;2023-04-04T03:17:04;6.40;80.30
37086;DHT22;23001;45.952;12.676;2023-04-04T03:19:44;6.40;79.60
37086;DHT22;23001;45.952;12.676;2023-04-04T03:22:35;6.40;78.50
37086;DHT22;23001;45.952;12.676;2023-04-04T03:25:21;6.40;78.90
37086;DHT22;23001;45.952;12.676;2023-04-04T03:28:20;6.60;80.00
37086;DHT22;23001;45.952;12.676;2023-04-04T03:33:51;6.40;78.60
37086;DHT22;23001;45.952;12.676;2023-04-04T03:36:31;6.40;78.90
37086;DHT22;23001;45.952;12.676;2023-04-04T03:39:25;6.30;78.70
37086;DHT22;23001;45.952;12.676;2023-04-04T03:42:14;6.40;77.60
37086;DHT22;23001;45.952;12.676;2023-04-04T03:45:09;6.40;79.20
37086;DHT22;23001;45.952;12.676;2023-04-04T05:28:50;5.70;90.10
37086;DHT22;23001;45.952;12.676;2023-04-04T05:57:26;6.70;80.70
37086;DHT22;23001;45.952;12.676;2023-04-04T09:27:19;11.20;69.00
37086;DHT22;23001;45.952;12.676;2023-04-04T09:29:44;11.60;67.60
37086;DHT22;23001;45.952;12.676;2023-04-04T09:32:14;11.60;67.20
37086;DHT22;23001;45.952;12.676;2023-04-04T09:34:43;11.40;66.20
37086;DHT22;23001;45.952;12.676;2023-04-04T09:37:09;11.10;68.10
37086;DHT22;23001;45.952;12.676;2023-04-04T09:39:38;11.40;66.60
37086;DHT22;23001;45.952;12.676;2023-04-04T09:42:04;11.40;65.50
37086;DHT22;23001;45.952;12.676;2023-04-04T09:44:30;11.50;67.50
37086;DHT22;23001;45.952;12.676;2023-04-04T09:49:42;10.90;66.00
37086;DHT22;23001;45.952;12.676;2023-04-04T09:52:16;11.10;67.20
37086;DHT22;23001;45.952;12.676;2023-04-04T09:54:42;11.40;65.70
37086;DHT22;23001;45.952;12.676;2023-04-04T09:57:07;11.40;65.30
37086;DHT22;23001;45.952;12.676;2023-04-04T09:59:33;11.40;67.50
37086;DHT22;23001;45.952;12.676;2023-04-04T10:02:00;11.30;67.30
37086;DHT22;23001;45.952;12.676;2023-04-04T10:04:26;11.30;67.10
37086;DHT22;23001;45.952;12.676;2023-04-04T10:06:55;11.40;68.10
37086;DHT22;23001;45.952;12.676;2023-04-04T10:09:23;11.70;67.80
37086;DHT22;23001;45.952;12.676;2023-04-04T10:11:49;11.70;65.80
37086;DHT22;23001;45.952;12.676;2023-04-04T10:14:15;11.90;65.80
37086;DHT22;23001;45.952;12.676;2023-04-04T10:16:43;11.90;67.00
37086;DHT22;23001;45.952;12.676;2023-04-04T10:19:09;11.90;67.00
37086;DHT22;23001;45.952;12.676;2023-04-04T10:21:37;12.20;66.00
37086;DHT22;23001;45.952;12.676;2023-04-04T10:24:02;12.10;66.60
37086;DHT22;23001;45.952;12.676;2023-04-04T10:26:33;11.80;61.10
37086;DHT22;23001;45.952;12.676;2023-04-04T10:28:58;11.70;63.60
37086;DHT22;23001;45.952;12.676;2023-04-04T10:31:24;11.70;63.60
37086;DHT22;23001;45.952;12.676;2023-04-04T10:36:27;11.60;62.10
37086;DHT22;23001;45.952;12.676;2023-04-04T15:15:00;13.50;66.00
37086;DHT22;23001;45.952;12.676;2023-04-04T15:17:49;13.40;63.90
37086;DHT22;23001;45.952;12.676;2023-04-04T15:20:19;13.40;66.20
37086;DHT22;23001;45.952;12.676;2023-04-04T15:22:54;13.40;67.00
37086;DHT22;23001;45.952;12.676;2023-04-04T15:25:27;13.40;65.10
37086;DHT22;23001;45.952;12.676;2023-04-04T15:27:58;13.50;64.60
37086;DHT22;23001;45.952;12.676;2023-04-04T15:30:25;13.40;65.30
37086;DHT22;23001;45.952;12.676;2023-04-04T15:32:51;13.40;66.20
37086;DHT22;23001;45.952;12.676;2023-04-04T15:35:29;13.30;64.00
37086;DHT22;23001;45.952;12.676;2023-04-04T15:38:00;13.30;64.50
37086;DHT22;23001;45.952;12.676;2023-04-04T15:40:26;13.30;65.00
37086;DHT22;23001;45.952;12.676;2023-04-04T15:42:54;13.20;65.70
37086;DHT22;23001;45.952;12.676;2023-04-04T15:45:21;13.20;66.20
37086;DHT22;23001;45.952;12.676;2023-04-04T15:47:47;13.30;65.20
37086;DHT22;23001;45.952;12.676;2023-04-04T15:53:28;13.30;64.90
37086;DHT22;23001;45.952;12.676;2023-04-04T15:55:54;13.10;64.60
37086;DHT22;23001;45.952;12.676;2023-04-04T15:58:23;13.10;64.60
37086;DHT22;23001;45.952;12.676;2023-04-04T16:00:48;13.10;64.60
37086;DHT22;23001;45.952;12.676;2023-04-04T16:03:26;13.00;64.00
37086;DHT22;23001;45.952;12.676;2023-04-04T16:06:24;13.00;66.70
37086;DHT22;23001;45.952;12.676;2023-04-04T16:09:05;13.10;66.50
37086;DHT22;23001;45.952;12.676;2023-04-04T16:11:34;13.00;67.40
37086;DHT22;23001;45.952;12.676;2023-04-04T16:14:14;13.00;66.80
37086;DHT22;23001;45.952;12.676;2023-04-04T16:17:25;13.10;66.10
37086;DHT22;23001;45.952;12.676;2023-04-04T16:19:46;12.90;64.90
37086;DHT22;23001;45.952;12.676;2023-04-04T16:22:11;12.80;65.80
37086;DHT22;23001;45.952;12.676;2023-04-04T16:28:04;12.70;67.70
37086;DHT22;23001;45.952;12.676;2023-04-04T16:30:31;12.70;67.00
37086;DHT22;23001;45.952;12.676;2023-04-04T16:33:00;12.50;66.90
37086;DHT22;23001;45.952;12.676;2023-04-04T16:35:28;12.50;68.40
37086;DHT22;23001;45.952;12.676;2023-04-04T16:37:57;12.30;67.20
37086;DHT22;23001;45.952;12.676;2023-04-04T16:40:54;12.30;66.60
37086;DHT22;23001;45.952;12.676;2023-04-04T16:43:37;12.40;67.40
37086;DHT22;23001;45.952;12.676;2023-04-04T16:46:04;12.30;68.50
37086;DHT22;23001;45.952;12.676;2023-04-04T16:48:29;12.20;68.30
37086;DHT22;23001;45.952;12.676;2023-04-04T16:53:59;12.10;68.50
37086;DHT22;23001;45.952;12.676;2023-04-04T16:56:28;12.10;68.60
37086;DHT22;23001;45.952;12.676;2023-04-04T16:58:55;12.10;68.70
37086;DHT22;23001;45.952;12.676;2023-04-04T17:10:33;12.00;69.10
37086;DHT22;23001;45.952;12.676;2023-04-04T17:13:10;11.90;68.60
